sensor_id;sensor_type;location;lat;lon;timestamp;temperature;humidity
33207;DHT22;19565;46.602;11.534;2023-04-01T00:00:53;9.40;99.90
33207;DHT22;19565;46.602;11.534;2023-04-01T00:03:24;9.40;99.90
33207;DHT22;19565;46.602;11.534;2023-04-01T00:05:54;9.40;99.90
33207;DHT22;19565;46.602;11.534;2023-04-01T00:08:22;9.40;99.90
33207;DHT22;19565;46.602;11.534;2023-04-01T00:10:50;9.30;99.90
33207;DHT22;19565;46.602;11.534;2023-04-01T00:13:20;9.30;99.90
33207;DHT22;19565;46.602;11.534;2023-04-01T00:15:49;9.40;99.90
33207;DHT22;19565;46.602;11.534;2023-04-01T00:18:17;9.40;99.90
33207;DHT22;19565;46.602;11.534;2023-04-01T00:20:45;9.40;99.90
33207;DHT22;19565;46.602;11.534;2023-04-01T00:23:14;9.40;99.90
33207;DHT22;19565;46.602;11.534;2023-04-01T00:25:44;9.40;99.90
33207;DHT22;19565;46.602;11.534;2023-04-01T00:28:12;9.40;99.90
33207;DHT22;19565;46.602;11.534;2023-04-01T00:30:42;9.40;99.90
33207;DHT22;19565;46.602;11.534;2023-04-01T00:33:10;9.20;99.90
33207;DHT22;19565;46.602;11.534;2023-04-01T00:35:38;9.30;99.90
33207;DHT22;19565;46.602;11.534;2023-04-01T00:38:07;9.40;99.90
33207;DHT22;19565;46.602;11.534;2023-04-01T00:40:37;9.40;99.90
33207;DHT22;19565;46.602;11.534;2023-04-01T00:43:11;9.40;99.90
33207;DHT22;19565;46.602;11.534;2023-04-01T00:45:40;9.30;99.90
33207;DHT22;19565;46.602;11.534;2023-04-01T00:48:12;9.30;99.90
33207;DHT22;19565;46.602;11.534;2023-04-01T00:50:44;8.90;99.90
33207;DHT22;19565;46.602;11.534;2023-04-01T00:53:14;8.60;99.90
33207;DHT22;19565;46.602;11.534;2023-04-01T00:55:45;8.80;99.90
33207;DHT22;19565;46.602;11.534;2023-04-01T00:58:18;9.00;99.90
33207;DHT22;19565;46.602;11.534;2023-04-01T01:00:49;9.00;99.90
33207;DHT22;19565;46.602;11.534;2023-04-01T01:03:19;9.10;99.90
33207;DHT22;19565;46.602;11.534;2023-04-01T01:06:07;9.10;99.90
33207;DHT22;19565;46.602;11.534;2023-04-01T01:08:51;9.10;99.90
33207;DHT22;19565;46.602;11.534;2023-04-01T01:11:24;9.10;99.90
33207;DHT22;19565;46.602;11.534;2023-04-01T01:14:21;9.10;99.90
33207;DHT22;19565;46.602;11.534;2023-04-01T01:16:57;9.10;99.90
33207;DHT22;19565;46.602;11.534;2023-04-01T01:19:46;9.10;99.90
33207;DHT22;19565;46.602;11.534;2023-04-01T01:22:35;9.10;99.90
33207;DHT22;19565;46.602;11.534;2023-04-01T01:25:25;9.10;99.90
33207;DHT22;19565;46.602;11.534;2023-04-01T01:28:13;9.10;99.90
33207;DHT22;19565;46.602;11.534;2023-04-01T01:30:48;8.80;99.90
33207;DHT22;19565;46.602;11.534;2023-04-01T01:33:31;8.70;99.90
33207;DHT22;19565;46.602;11.534;2023-04-01T01:36:04;8.50;99.90
33207;DHT22;19565;46.602;11.534;2023-04-01T01:38:35;8.70;99.90
33207;DHT22;19565;46.602;11.534;2023-04-01T01:41:06;8.70;99.90
33207;DHT22;19565;46.602;11.534;2023-04-01T01:43:37;8.90;99.90
33207;DHT22;19565;46.602;11.534;2023-04-01T01:46:09;8.90;99.90
33207;DHT22;19565;46.602;11.534;2023-04-01T01:48:40;9.00;99.90
33207;DHT22;19565;46.602;11.534;2023-04-01T01:51:10;9.10;99.90
33207;DHT22;19565;46.602;11.534;2023-04-01T01:53:38;9.10;99.90
33207;DHT22;19565;46.602;11.534;2023-04-01T01:56:07;9.10;99.90
33207;DHT22;19565;46.602;11.534;2023-04-01T01:58:40;9.00;99.90
33207;DHT22;19565;46.602;11.534;2023-04-01T02:01:13;9.10;99.90
33207;DHT22;19565;46.602;11.534;2023-04-01T02:03:43;9.20;99.90
33207;DHT22;19565;46.602;11.534;2023-04-01T02:06:16;9.10;99.90
33207;DHT22;19565;46.602;11.534;2023-04-01T02:08:50;9.10;99.90
33207;DHT22;19565;46.602;11.534;2023-04-01T02:11:22;9.00;99.90
33207;DHT22;19565;46.602;11.534;2023-04-01T02:13:54;9.00;99.90
33207;DHT22;19565;46.602;11.534;2023-04-01T02:16:26;9.00;99.90
33207;DHT22;19565;46.602;11.534;2023-04-01T02:18:57;9.00;99.90
33207;DHT22;19565;46.602;11.534;2023-04-01T02:21:31;9.00;99.90
33207;DHT22;19565;46.602;11.534;2023-04-01T02:24:01;9.00;99.90
33207;DHT22;19565;46.602;11.534;2023-04-01T02:26:30;8.80;99.90
33207;DHT22;19565;46.602;11.534;2023-04-01T02:28:59;8.60;99.90
33207;DHT22;19565;46.602;11.534;2023-04-01T02:31:29;8.40;99.90
33207;DHT22;19565;46.602;11.534;2023-04-01T02:33:57;8.30;99.90
33207;DHT22;19565;46.602;11.534;2023-04-01T02:36:25;8.50;99.90
33207;DHT22;19565;46.602;11.534;2023-04-01T02:38:56;8.60;99.90
33207;DHT22;19565;46.602;11.534;2023-04-01T02:41:27;8.60;99.90
33207;DHT22;19565;46.602;11.534;2023-04-01T02:43:55;8.70;99.90
33207;DHT22;19565;46.602;11.534;2023-04-01T02:46:25;8.70;99.90
33207;DHT22;19565;46.602;11.534;2023-04-01T02:48:53;8.70;99.90
33207;DHT22;19565;46.602;11.534;2023-04-01T02:51:21;8.40;99.90
33207;DHT22;19565;46.602;11.534;2023-04-01T02:53:49;8.40;99.90
33207;DHT22;19565;46.602;11.534;2023-04-01T02:56:19;8.50;99.90
33207;DHT22;19565;46.602;11.534;2023-04-01T02:58:48;8.70;99.90
33207;DHT22;19565;46.602;11.534;2023-04-01T03:01:17;8.70;99.90
33207;DHT22;19565;46.602;11.534;2023-04-01T03:03:45;8.70;99.90
33207;DHT22;19565;46.602;11.534;2023-04-01T03:06:15;8.50;99.90
33207;DHT22;19565;46.602;11.534;2023-04-01T03:08:44;8.50;99.90
33207;DHT22;19565;46.602;11.534;2023-04-01T03:11:12;8.30;99.90
33207;DHT22;19565;46.602;11.534;2023-04-01T03:13:42;8.40;99.90
33207;DHT22;19565;46.602;11.534;2023-04-01T03:16:10;8.50;99.90
33207;DHT22;19565;46.602;11.534;2023-04-01T03:18:38;8.70;99.90
33207;DHT22;19565;46.602;11.534;2023-04-01T03:21:14;8.80;99.90
33207;DHT22;19565;46.602;11.534;2023-04-01T03:23:42;8.90;99.90
33207;DHT22;19565;46.602;11.534;2023-04-01T03:26:11;8.90;99.90
33207;DHT22;19565;46.602;11.534;2023-04-01T03:28:39;8.90;99.90
33207;DHT22;19565;46.602;11.534;2023-04-01T03:31:08;8.90;99.90
33207;DHT22;19565;46.602;11.534;2023-04-01T03:33:37;9.00;99.90
33207;DHT22;19565;46.602;11.534;2023-04-01T03:36:05;9.00;99.90
33207;DHT22;19565;46.602;11.534;2023-04-01T03:38:34;9.00;99.90
33207;DHT22;19565;46.602;11.534;2023-04-01T03:41:02;9.00;99.90
33207;DHT22;19565;46.602;11.534;2023-04-01T03:43:31;9.00;99.90
33207;DHT22;19565;46.602;11.534;2023-04-01T03:45:59;9.00;99.90
33207;DHT22;19565;46.602;11.534;2023-04-01T03:48:29;9.00;99.90
33207;DHT22;19565;46.602;11.534;2023-04-01T03:50:57;9.00;99.90
33207;DHT22;19565;46.602;11.534;2023-04-01T03:53:25;9.00;99.90
33207;DHT22;19565;46.602;11.534;2023-04-01T03:55:53;9.00;99.90
33207;DHT22;19565;46.602;11.534;2023-04-01T03:58:22;9.00;99.90
33207;DHT22;19565;46.602;11.534;2023-04-01T04:00:50;9.00;99.90
33207;DHT22;19565;46.602;11.534;2023-04-01T04:03:18;9.00;99.90
33207;DHT22;19565;46.602;11.534;2023-04-01T04:05:49;9.00;99.90
33207;DHT22;19565;46.602;11.534;2023-04-01T04:08:18;9.00;99.90
33207;DHT22;19565;46.602;11.534;2023-04-01T04:10:54;9.00;99.90
33207;DHT22;19565;46.602;11.534;2023-04-01T04:13:22;8.90;99.90
33207;DHT22;19565;46.602;11.534;2023-04-01T04:15:50;9.00;99.90
33207;DHT22;19565;46.602;11.534;2023-04-01T04:18:19;8.90;99.90
33207;DHT22;19565;46.602;11.534;2023-04-01T04:20:48;8.90;99.90
33207;DHT22;19565;46.602;11.534;2023-04-01T04:23:18;8.90;99.90
33207;DHT22;19565;46.602;11.534;2023-04-01T04:25:54;8.90;99.90
33207;DHT22;19565;46.602;11.534;2023-04-01T04:28:22;8.90;99.90
33207;DHT22;19565;46.602;11.534;2023-04-01T04:30:50;8.90;99.90
33207;DHT22;19565;46.602;11.534;2023-04-01T04:33:18;8.90;99.90
33207;DHT22;19565;46.602;11.534;2023-04-01T04:35:48;8.90;99.90
33207;DHT22;19565;46.602;11.534;2023-04-01T05:03:10;8.70;99.90
33207;DHT22;19565;46.602;11.534;2023-04-01T05:05:39;8.70;99.90
33207;DHT22;19565;46.602;11.534;2023-04-01T05:08:07;8.70;99.90
33207;DHT22;19565;46.602;11.534;2023-04-01T05:10:35;8.70;99.90
33207;DHT22;19565;46.602;11.534;2023-04-01T05:13:03;8.70;99.90
33207;DHT22;19565;46.602;11.534;2023-04-01T05:15:31;8.70;99.90
33207;DHT22;19565;46.602;11.534;2023-04-01T05:17:59;8.60;99.90
33207;DHT22;19565;46.602;11.534;2023-04-01T05:20:29;8.60;99.90
33207;DHT22;19565;46.602;11.534;2023-04-01T05:22:57;8.60;99.90
33207;DHT22;19565;46.602;11.534;2023-04-01T05:25:25;8.60;99.90
33207;DHT22;19565;46.602;11.534;2023-04-01T05:27:53;8.60;99.90
33207;DHT22;19565;46.602;11.534;2023-04-01T05:30:22;8.60;99.90
33207;DHT22;19565;46.602;11.534;2023-04-01T05:32:50;8.60;99.90
33207;DHT22;19565;46.602;11.534;2023-04-01T05:35:18;8.60;99.90
33207;DHT22;19565;46.602;11.534;2023-04-01T05:37:47;8.60;99.90
33207;DHT22;19565;46.602;11.534;2023-04-01T05:40:16;8.70;99.90
33207;DHT22;19565;46.602;11.534;2023-04-01T05:42:44;8.60;99.90
33207;DHT22;19565;46.602;11.534;2023-04-01T05:45:12;8.60;99.90
33207;DHT22;19565;46.602;11.534;2023-04-01T05:47:42;8.60;99.90
33207;DHT22;19565;46.602;11.534;2023-04-01T05:50:10;8.70;99.90
33207;DHT22;19565;46.602;11.534;2023-04-01T05:52:39;8.70;99.90
33207;DHT22;19565;46.602;11.534;2023-04-01T05:55:09;8.70;99.90
33207;DHT22;19565;46.602;11.534;2023-04-01T05:57:37;8.80;99.90
33207;DHT22;19565;46.602;11.534;2023-04-01T06:00:06;8.80;99.90
33207;DHT22;19565;46.602;11.534;2023-04-01T06:02:34;8.80;99.90
33207;DHT22;19565;46.602;11.534;2023-04-01T06:05:13;8.80;99.90
33207;DHT22;19565;46.602;11.534;2023-04-01T06:07:41;8.80;99.90
33207;DHT22;19565;46.602;11.534;2023-04-01T06:10:13;8.80;99.90
33207;DHT22;19565;46.602;11.534;2023-04-01T06:12:56;8.80;99.90
33207;DHT22;19565;46.602;11.534;2023-04-01T06:15:35;8.90;99.90
33207;DHT22;19565;46.602;11.534;2023-04-01T06:18:20;8.90;99.90
33207;DHT22;19565;46.602;11.534;2023-04-01T06:20:56;8.90;99.90
33207;DHT22;19565;46.602;11.534;2023-04-01T06:23:46;9.00;99.90
33207;DHT22;19565;46.602;11.534;2023-04-01T06:26:24;9.10;99.90
33207;DHT22;19565;46.602;11.534;2023-04-01T06:29:21;9.10;99.90
33207;DHT22;19565;46.602;11.534;2023-04-01T06:35:13;9.30;99.90
33207;DHT22;19565;46.602;11.534;2023-04-01T06:38:08;9.30;99.90
33207;DHT22;19565;46.602;11.534;2023-04-01T06:41:00;9.30;99.90
33207;DHT22;19565;46.602;11.534;2023-04-01T06:43:42;9.40;99.90
33207;DHT22;19565;46.602;11.534;2023-04-01T06:46:19;9.40;99.90
33207;DHT22;19565;46.602;11.534;2023-04-01T06:49:04;9.40;99.90
33207;DHT22;19565;46.602;11.534;2023-04-01T06:51:41;9.30;99.90
33207;DHT22;19565;46.602;11.534;2023-04-01T06:54:14;9.20;99.90
33207;DHT22;19565;46.602;11.534;2023-04-01T06:56:46;9.30;99.90
33207;DHT22;19565;46.602;11.534;2023-04-01T06:59:20;9.30;99.90
33207;DHT22;19565;46.602;11.534;2023-04-01T07:01:51;9.40;99.90
33207;DHT22;19565;46.602;11.534;2023-04-01T07:04:23;9.30;99.90
33207;DHT22;19565;46.602;11.534;2023-04-01T07:06:55;9.40;99.90
33207;DHT22;19565;46.602;11.534;2023-04-01T07:09:31;9.40;99.90
33207;DHT22;19565;46.602;11.534;2023-04-01T07:12:02;9.50;99.90
33207;DHT22;19565;46.602;11.534;2023-04-01T07:14:36;9.50;99.90
33207;DHT22;19565;46.602;11.534;2023-04-01T07:17:09;9.60;99.90
33207;DHT22;19565;46.602;11.534;2023-04-01T07:19:44;9.60;99.90
33207;DHT22;19565;46.602;11.534;2023-04-01T07:22:19;9.60;99.90
33207;DHT22;19565;46.602;11.534;2023-04-01T07:24:50;9.60;99.90
33207;DHT22;19565;46.602;11.534;2023-04-01T07:27:19;9.70;99.90
33207;DHT22;19565;46.602;11.534;2023-04-01T07:29:48;9.70;99.90
33207;DHT22;19565;46.602;11.534;2023-04-01T07:32:24;9.70;99.90
33207;DHT22;19565;46.602;11.534;2023-04-01T07:35:04;9.70;99.90
33207;DHT22;19565;46.602;11.534;2023-04-01T07:37:41;9.80;99.90
33207;DHT22;19565;46.602;11.534;2023-04-01T07:40:18;9.80;99.90
33207;DHT22;19565;46.602;11.534;2023-04-01T07:43:07;9.90;99.90
33207;DHT22;19565;46.602;11.534;2023-04-01T07:45:47;9.90;99.90
33207;DHT22;19565;46.602;11.534;2023-04-01T07:48:24;9.90;99.90
33207;DHT22;19565;46.602;11.534;2023-04-01T07:50:59;10.10;99.90
33207;DHT22;19565;46.602;11.534;2023-04-01T07:53:35;10.20;99.90
33207;DHT22;19565;46.602;11.534;2023-04-01T07:56:07;10.20;99.90
33207;DHT22;19565;46.602;11.534;2023-04-01T07:58:46;10.30;99.90
33207;DHT22;19565;46.602;11.534;2023-04-01T08:01:25;10.30;99.90
33207;DHT22;19565;46.602;11.534;2023-04-01T08:04:10;10.30;99.90
33207;DHT22;19565;46.602;11.534;2023-04-01T08:06:43;10.40;99.90
33207;DHT22;19565;46.602;11.534;2023-04-01T08:09:20;10.50;99.90
33207;DHT22;19565;46.602;11.534;2023-04-01T08:12:00;10.50;99.90
33207;DHT22;19565;46.602;11.534;2023-04-01T08:14:35;10.60;99.90
33207;DHT22;19565;46.602;11.534;2023-04-01T08:17:12;10.70;99.90
33207;DHT22;19565;46.602;11.534;2023-04-01T08:19:54;10.70;99.90
33207;DHT22;19565;46.602;11.534;2023-04-01T08:22:27;10.70;99.90
33207;DHT22;19565;46.602;11.534;2023-04-01T08:24:58;10.70;99.90
33207;DHT22;19565;46.602;11.534;2023-04-01T08:27:34;10.80;99.90
33207;DHT22;19565;46.602;11.534;2023-04-01T08:30:06;10.80;99.90
33207;DHT22;19565;46.602;11.534;2023-04-01T08:32:48;10.80;99.90
33207;DHT22;19565;46.602;11.534;2023-04-01T08:35:25;10.90;99.90
33207;DHT22;19565;46.602;11.534;2023-04-01T08:38:01;10.90;99.90
33207;DHT22;19565;46.602;11.534;2023-04-01T08:43:51;11.00;99.90
33207;DHT22;19565;46.602;11.534;2023-04-01T08:49:46;11.10;99.90
33207;DHT22;19565;46.602;11.534;2023-04-01T08:52:30;11.10;99.90
33207;DHT22;19565;46.602;11.534;2023-04-01T08:58:30;11.20;98.50
33207;DHT22;19565;46.602;11.534;2023-04-01T09:01:13;11.10;97.50
33207;DHT22;19565;46.602;11.534;2023-04-01T09:03:56;11.10;97.50
33207;DHT22;19565;46.602;11.534;2023-04-01T09:06:35;11.20;97.60
33207;DHT22;19565;46.602;11.534;2023-04-01T09:09:36;11.30;97.90
33207;DHT22;19565;46.602;11.534;2023-04-01T09:12:28;11.30;97.30
33207;DHT22;19565;46.602;11.534;2023-04-01T09:15:34;11.40;95.90
33207;DHT22;19565;46.602;11.534;2023-04-01T09:18:15;11.50;96.20
33207;DHT22;19565;46.602;11.534;2023-04-01T09:20:58;11.50;96.40
33207;DHT22;19565;46.602;11.534;2023-04-01T09:23:57;11.60;96.70
33207;DHT22;19565;46.602;11.534;2023-04-01T09:26:53;11.70;94.90
33207;DHT22;19565;46.602;11.534;2023-04-01T09:29:38;11.70;94.30
33207;DHT22;19565;46.602;11.534;2023-04-01T09:32:40;11.70;94.10
33207;DHT22;19565;46.602;11.534;2023-04-01T09:35:23;11.80;94.60
33207;DHT22;19565;46.602;11.534;2023-04-01T09:37:54;11.90;94.00
33207;DHT22;19565;46.602;11.534;2023-04-01T09:40:46;11.90;92.20
33207;DHT22;19565;46.602;11.534;2023-04-01T09:43:23;12.00;93.20
33207;DHT22;19565;46.602;11.534;2023-04-01T09:46:04;12.00;92.70
33207;DHT22;19565;46.602;11.534;2023-04-01T09:51:38;12.20;91.10
33207;DHT22;19565;46.602;11.534;2023-04-01T09:54:17;12.30;91.50
33207;DHT22;19565;46.602;11.534;2023-04-01T10:00:15;12.40;91.00
33207;DHT22;19565;46.602;11.534;2023-04-01T10:09:20;12.70;89.50
33207;DHT22;19565;46.602;11.534;2023-04-01T10:12:29;12.70;87.50
33207;DHT22;19565;46.602;11.534;2023-04-01T10:15:29;12.80;89.00
33207;DHT22;19565;46.602;11.534;2023-04-01T10:18:26;12.90;90.10
33207;DHT22;19565;46.602;11.534;2023-04-01T10:21:18;12.90;88.00
33207;DHT22;19565;46.602;11.534;2023-04-01T10:24:19;13.00;87.20
33207;DHT22;19565;46.602;11.534;2023-04-01T10:27:20;13.00;87.10
33207;DHT22;19565;46.602;11.534;2023-04-01T10:30:34;13.10;85.60
33207;DHT22;19565;46.602;11.534;2023-04-01T10:39:34;13.10;84.90
33207;DHT22;19565;46.602;11.534;2023-04-01T10:52:01;13.60;83.40
33207;DHT22;19565;46.602;11.534;2023-04-01T10:54:45;13.70;83.50
33207;DHT22;19565;46.602;11.534;2023-04-01T10:57:42;13.80;83.50
33207;DHT22;19565;46.602;11.534;2023-04-01T11:13:17;14.30;77.10
33207;DHT22;19565;46.602;11.534;2023-04-01T11:19:34;14.50;75.10
33207;DHT22;19565;46.602;11.534;2023-04-01T11:25:46;14.60;73.30
33207;DHT22;19565;46.602;11.534;2023-04-01T11:28:43;14.70;72.30
33207;DHT22;19565;46.602;11.534;2023-04-01T11:31:29;14.80;71.60
33207;DHT22;19565;46.602;11.534;2023-04-01T11:34:13;14.80;71.30
33207;DHT22;19565;46.602;11.534;2023-04-01T11:36:52;14.90;70.10
33207;DHT22;19565;46.602;11.534;2023-04-01T11:39:32;14.90;69.30
33207;DHT22;19565;46.602;11.534;2023-04-01T11:42:14;15.00;67.10
33207;DHT22;19565;46.602;11.534;2023-04-01T11:44:50;15.00;67.40
33207;DHT22;19565;46.602;11.534;2023-04-01T11:50:29;15.00;65.20
33207;DHT22;19565;46.602;11.534;2023-04-01T11:53:15;15.00;66.00
33207;DHT22;19565;46.602;11.534;2023-04-01T11:55:56;15.00;66.20
33207;DHT22;19565;46.602;11.534;2023-04-01T11:58:58;15.10;64.80
33207;DHT22;19565;46.602;11.534;2023-04-01T12:01:40;15.10;64.10
33207;DHT22;19565;46.602;11.534;2023-04-01T12:04:46;15.10;62.50
33207;DHT22;19565;46.602;11.534;2023-04-01T12:07:42;15.10;61.50
33207;DHT22;19565;46.602;11.534;2023-04-01T12:10:18;15.10;61.80
33207;DHT22;19565;46.602;11.534;2023-04-01T12:12:52;15.20;62.00
33207;DHT22;19565;46.602;11.534;2023-04-01T12:15:37;15.20;60.90
33207;DHT22;19565;46.602;11.534;2023-04-01T12:18:17;15.30;61.00
33207;DHT22;19565;46.602;11.534;2023-04-01T12:20:50;15.40;60.10
33207;DHT22;19565;46.602;11.534;2023-04-01T12:23:41;15.50;57.90
33207;DHT22;19565;46.602;11.534;2023-04-01T12:26:27;15.60;56.90
33207;DHT22;19565;46.602;11.534;2023-04-01T12:29:09;15.60;56.10
33207;DHT22;19565;46.602;11.534;2023-04-01T12:31:51;15.60;54.20
33207;DHT22;19565;46.602;11.534;2023-04-01T12:34:57;15.60;53.30
33207;DHT22;19565;46.602;11.534;2023-04-01T12:37:36;15.60;52.20
33207;DHT22;19565;46.602;11.534;2023-04-01T12:40:24;15.70;53.40
33207;DHT22;19565;46.602;11.534;2023-04-01T12:43:11;15.80;53.60
33207;DHT22;19565;46.602;11.534;2023-04-01T12:45:46;15.80;53.30
33207;DHT22;19565;46.602;11.534;2023-04-01T12:48:29;15.90;53.20
33207;DHT22;19565;46.602;11.534;2023-04-01T12:51:18;16.00;53.30
33207;DHT22;19565;46.602;11.534;2023-04-01T12:54:13;16.00;51.40
33207;DHT22;19565;46.602;11.534;2023-04-01T12:56:51;16.10;51.70
33207;DHT22;19565;46.602;11.534;2023-04-01T12:59:33;16.20;52.00
33207;DHT22;19565;46.602;11.534;2023-04-01T13:02:12;16.20;49.20
33207;DHT22;19565;46.602;11.534;2023-04-01T13:08:03;16.20;48.00
33207;DHT22;19565;46.602;11.534;2023-04-01T13:10:52;16.40;47.20
33207;DHT22;19565;46.602;11.534;2023-04-01T13:13:34;16.40;47.20
33207;DHT22;19565;46.602;11.534;2023-04-01T13:16:10;16.40;49.30
33207;DHT22;19565;46.602;11.534;2023-04-01T13:18:50;16.40;49.80
33207;DHT22;19565;46.602;11.534;2023-04-01T13:21:30;16.30;50.10
33207;DHT22;19565;46.602;11.534;2023-04-01T13:24:05;16.30;51.90
33207;DHT22;19565;46.602;11.534;2023-04-01T13:26:43;16.40;51.10
33207;DHT22;19565;46.602;11.534;2023-04-01T13:29:21;16.40;50.90
33207;DHT22;19565;46.602;11.534;2023-04-01T13:32:02;16.40;48.60
33207;DHT22;19565;46.602;11.534;2023-04-01T13:34:43;16.40;48.40
33207;DHT22;19565;46.602;11.534;2023-04-01T13:37:29;16.40;49.90
33207;DHT22;19565;46.602;11.534;2023-04-01T13:40:25;16.40;48.80
33207;DHT22;19565;46.602;11.534;2023-04-01T13:42:59;16.40;48.40
33207;DHT22;19565;46.602;11.534;2023-04-01T13:45:35;16.40;47.60
33207;DHT22;19565;46.602;11.534;2023-04-01T13:48:27;16.40;47.90
33207;DHT22;19565;46.602;11.534;2023-04-01T13:51:11;16.40;46.00
33207;DHT22;19565;46.602;11.534;2023-04-01T13:54:14;16.50;46.70
33207;DHT22;19565;46.602;11.534;2023-04-01T13:56:50;16.50;45.80
33207;DHT22;19565;46.602;11.534;2023-04-01T13:59:48;16.70;45.60
33207;DHT22;19565;46.602;11.534;2023-04-01T14:02:36;16.70;46.10
33207;DHT22;19565;46.602;11.534;2023-04-01T14:05:20;16.70;46.70
33207;DHT22;19565;46.602;11.534;2023-04-01T14:08:17;16.70;47.10
33207;DHT22;19565;46.602;11.534;2023-04-01T14:10:53;16.70;47.20
33207;DHT22;19565;46.602;11.534;2023-04-01T14:13:34;16.70;47.70
33207;DHT22;19565;46.602;11.534;2023-04-01T14:16:23;16.60;47.00
33207;DHT22;19565;46.602;11.534;2023-04-01T14:19:07;16.70;46.80
33207;DHT22;19565;46.602;11.534;2023-04-01T14:21:40;16.70;47.40
33207;DHT22;19565;46.602;11.534;2023-04-01T14:24:27;16.80;47.90
33207;DHT22;19565;46.602;11.534;2023-04-01T14:30:40;17.00;48.10
33207;DHT22;19565;46.602;11.534;2023-04-01T14:33:26;17.10;48.10
33207;DHT22;19565;46.602;11.534;2023-04-01T14:36:04;17.20;49.40
33207;DHT22;19565;46.602;11.534;2023-04-01T14:38:50;17.30;48.90
33207;DHT22;19565;46.602;11.534;2023-04-01T14:41:27;17.30;47.50
33207;DHT22;19565;46.602;11.534;2023-04-01T14:44:11;17.30;48.50
33207;DHT22;19565;46.602;11.534;2023-04-01T14:47:08;17.30;46.70
33207;DHT22;19565;46.602;11.534;2023-04-01T14:49:41;17.20;46.80
33207;DHT22;19565;46.602;11.534;2023-04-01T14:52:13;17.10;48.70
33207;DHT22;19565;46.602;11.534;2023-04-01T14:54:44;17.10;49.70
33207;DHT22;19565;46.602;11.534;2023-04-01T14:57:15;17.10;50.30
33207;DHT22;19565;46.602;11.534;2023-04-01T14:59:48;17.10;50.10
33207;DHT22;19565;46.602;11.534;2023-04-01T15:02:33;17.00;49.20
33207;DHT22;19565;46.602;11.534;2023-04-01T15:05:15;17.10;48.10
33207;DHT22;19565;46.602;11.534;2023-04-01T15:07:59;17.00;46.30
33207;DHT22;19565;46.602;11.534;2023-04-01T15:10:55;17.00;46.50
33207;DHT22;19565;46.602;11.534;2023-04-01T15:16:36;16.90;47.90
33207;DHT22;19565;46.602;11.534;2023-04-01T15:19:14;16.80;48.10
33207;DHT22;19565;46.602;11.534;2023-04-01T15:22:04;16.80;48.40
33207;DHT22;19565;46.602;11.534;2023-04-01T15:24:46;16.60;47.70
33207;DHT22;19565;46.602;11.534;2023-04-01T15:27:31;16.60;48.50
33207;DHT22;19565;46.602;11.534;2023-04-01T15:33:10;16.50;49.70
33207;DHT22;19565;46.602;11.534;2023-04-01T15:35:48;16.50;49.90
33207;DHT22;19565;46.602;11.534;2023-04-01T15:38:24;16.40;50.70
33207;DHT22;19565;46.602;11.534;2023-04-01T15:41:01;16.40;50.60
33207;DHT22;19565;46.602;11.534;2023-04-01T15:43:36;16.40;49.80
33207;DHT22;19565;46.602;11.534;2023-04-01T15:46:41;16.30;48.80
33207;DHT22;19565;46.602;11.534;2023-04-01T15:49:20;16.30;48.80
33207;DHT22;19565;46.602;11.534;2023-04-01T15:52:02;16.40;49.50
33207;DHT22;19565;46.602;11.534;2023-04-01T15:57:40;16.40;49.70
33207;DHT22;19565;46.602;11.534;2023-04-01T16:00:23;16.50;50.50
33207;DHT22;19565;46.602;11.534;2023-04-01T16:03:17;16.50;50.10
33207;DHT22;19565;46.602;11.534;2023-04-01T16:06:01;16.50;50.40
33207;DHT22;19565;46.602;11.534;2023-04-01T16:11:43;16.40;48.90
33207;DHT22;19565;46.602;11.534;2023-04-01T16:14:29;16.40;49.60
33207;DHT22;19565;46.602;11.534;2023-04-01T16:17:19;16.40;48.70
33207;DHT22;19565;46.602;11.534;2023-04-01T16:19:53;16.30;48.50
33207;DHT22;19565;46.602;11.534;2023-04-01T16:22:26;16.30;48.10
33207;DHT22;19565;46.602;11.534;2023-04-01T16:25:14;16.20;49.10
33207;DHT22;19565;46.602;11.534;2023-04-01T16:27:51;16.20;49.70
33207;DHT22;19565;46.602;11.534;2023-04-01T16:30:35;16.10;49.10
33207;DHT22;19565;46.602;11.534;2023-04-01T16:33:05;16.10;48.10
33207;DHT22;19565;46.602;11.534;2023-04-01T16:35:43;16.10;48.90
33207;DHT22;19565;46.602;11.534;2023-04-01T16:38:18;16.10;49.60
33207;DHT22;19565;46.602;11.534;2023-04-01T16:40:58;16.00;49.60
33207;DHT22;19565;46.602;11.534;2023-04-01T16:43:35;16.00;49.70
33207;DHT22;19565;46.602;11.534;2023-04-01T16:46:26;15.90;51.50
33207;DHT22;19565;46.602;11.534;2023-04-01T16:49:08;15.80;50.00
33207;DHT22;19565;46.602;11.534;2023-04-01T16:51:46;15.70;49.90
33207;DHT22;19565;46.602;11.534;2023-04-01T16:54:24;15.70;50.20
33207;DHT22;19565;46.602;11.534;2023-04-01T16:57:10;15.70;48.90
33207;DHT22;19565;46.602;11.534;2023-04-01T16:59:47;15.70;49.70
33207;DHT22;19565;46.602;11.534;2023-04-01T17:02:23;15.60;51.50
33207;DHT22;19565;46.602;11.534;2023-04-01T17:04:59;15.60;52.20
33207;DHT22;19565;46.602;11.534;2023-04-01T17:07:36;15.60;54.70
33207;DHT22;19565;46.602;11.534;2023-04-01T17:10:25;15.50;55.70
33207;DHT22;19565;46.602;11.534;2023-04-01T17:15:55;15.40;58.10
33207;DHT22;19565;46.602;11.534;2023-04-01T17:18:35;15.30;59.00
33207;DHT22;19565;46.602;11.534;2023-04-01T17:21:10;15.20;58.60
33207;DHT22;19565;46.602;11.534;2023-04-01T17:23:44;15.10;59.30
33207;DHT22;19565;46.602;11.534;2023-04-01T17:26:23;15.00;60.20
33207;DHT22;19565;46.602;11.534;2023-04-01T17:28:59;14.90;60.00
33207;DHT22;19565;46.602;11.534;2023-04-01T17:31:42;14.80;60.70
33207;DHT22;19565;46.602;11.534;2023-04-01T17:34:35;14.70;60.90
33207;DHT22;19565;46.602;11.534;2023-04-01T17:37:22;14.60;61.40
33207;DHT22;19565;46.602;11.534;2023-04-01T17:42:59;14.50;62.50
33207;DHT22;19565;46.602;11.534;2023-04-01T17:45:37;14.40;62.70
33207;DHT22;19565;46.602;11.534;2023-04-01T17:48:18;14.40;63.00
33207;DHT22;19565;46.602;11.534;2023-04-01T17:50:59;14.30;63.00
33207;DHT22;19565;46.602;11.534;2023-04-01T17:53:37;14.30;63.50
33207;DHT22;19565;46.602;11.534;2023-04-01T17:56:17;14.20;63.70
33207;DHT22;19565;46.602;11.534;2023-04-01T17:58:53;14.20;63.80
33207;DHT22;19565;46.602;11.534;2023-04-01T18:01:54;14.10;64.30
33207;DHT22;19565;46.602;11.534;2023-04-01T18:10:18;14.10;64.30
33207;DHT22;19565;46.602;11.534;2023-04-01T18:13:08;14.10;65.80
33207;DHT22;19565;46.602;11.534;2023-04-01T18:15:44;14.20;66.80
33207;DHT22;19565;46.602;11.534;2023-04-01T18:18:34;14.20;67.60
33207;DHT22;19565;46.602;11.534;2023-04-01T18:21:08;14.20;67.70
33207;DHT22;19565;46.602;11.534;2023-04-01T18:23:44;14.10;68.10
33207;DHT22;19565;46.602;11.534;2023-04-01T18:26:29;14.00;68.70
33207;DHT22;19565;46.602;11.534;2023-04-01T18:29:02;14.00;69.30